sensor_id;sensor_type;location;lat;lon;timestamp;P1;durP1;ratioP1;P2;durP2;ratioP2
42092;SDS011;28974;50.316;18.960;2023-08-31T00:03:21;47.75;;;27.23;;
42092;SDS011;28974;50.316;18.960;2023-08-31T00:15:22;43.95;;;25.33;;
42092;SDS011;28974;50.316;18.960;2023-08-31T00:27:22;45.60;;;23.90;;
42092;SDS011;28974;50.316;18.960;2023-08-31T00:39:22;43.10;;;26.35;;
42092;SDS011;28974;50.316;18.960;2023-08-31T00:51:22;40.38;;;23.80;;
42092;SDS011;28974;50.316;18.960;2023-08-31T01:15:44;36.10;;;20.67;;
42092;SDS011;28974;50.316;18.960;2023-08-31T01:27:44;33.33;;;19.95;;
42092;SDS011;28974;50.316;18.960;2023-08-31T01:39:49;32.53;;;17.23;;
42092;SDS011;28974;50.316;18.960;2023-08-31T01:51:51;28.25;;;17.38;;
42092;SDS011;28974;50.316;18.960;2023-08-31T02:03:51;25.50;;;15.32;;
42092;SDS011;28974;50.316;18.960;2023-08-31T02:15:52;28.10;;;14.00;;
42092;SDS011;28974;50.316;18.960;2023-08-31T02:27:54;29.75;;;14.65;;
42092;SDS011;28974;50.316;18.960;2023-08-31T02:39:54;32.08;;;14.48;;
42092;SDS011;28974;50.316;18.960;2023-08-31T02:51:54;29.65;;;18.55;;
42092;SDS011;28974;50.316;18.960;2023-08-31T03:03:55;32.57;;;19.53;;
42092;SDS011;28974;50.316;18.960;2023-08-31T03:15:56;30.17;;;18.05;;
42092;SDS011;28974;50.316;18.960;2023-08-31T03:27:58;30.05;;;18.55;;
42092;SDS011;28974;50.316;18.960;2023-08-31T03:39:58;29.50;;;16.73;;
42092;SDS011;28974;50.316;18.960;2023-08-31T03:51:59;35.35;;;14.38;;
42092;SDS011;28974;50.316;18.960;2023-08-31T04:04:01;23.08;;;13.45;;
42092;SDS011;28974;50.316;18.960;2023-08-31T04:16:04;35.70;;;15.25;;
42092;SDS011;28974;50.316;18.960;2023-08-31T04:28:04;30.73;;;14.52;;
42092;SDS011;28974;50.316;18.960;2023-08-31T04:40:04;26.60;;;14.88;;
42092;SDS011;28974;50.316;18.960;2023-08-31T04:52:05;25.00;;;13.02;;
42092;SDS011;28974;50.316;18.960;2023-08-31T05:04:05;23.45;;;12.65;;
42092;SDS011;28974;50.316;18.960;2023-08-31T05:16:10;19.58;;;12.30;;
42092;SDS011;28974;50.316;18.960;2023-08-31T05:28:13;19.10;;;12.32;;
42092;SDS011;28974;50.316;18.960;2023-08-31T05:40:14;21.25;;;11.75;;
42092;SDS011;28974;50.316;18.960;2023-08-31T05:52:15;15.68;;;8.80;;
42092;SDS011;28974;50.316;18.960;2023-08-31T06:04:15;18.17;;;9.32;;
42092;SDS011;28974;50.316;18.960;2023-08-31T06:16:16;17.55;;;8.68;;
42092;SDS011;28974;50.316;18.960;2023-08-31T06:28:16;17.65;;;10.52;;
42092;SDS011;28974;50.316;18.960;2023-08-31T06:40:16;28.67;;;12.73;;
42092;SDS011;28974;50.316;18.960;2023-08-31T06:52:17;28.90;;;14.68;;
42092;SDS011;28974;50.316;18.960;2023-08-31T07:04:22;26.00;;;14.20;;
42092;SDS011;28974;50.316;18.960;2023-08-31T07:16:23;23.98;;;13.77;;
42092;SDS011;28974;50.316;18.960;2023-08-31T07:28:23;25.48;;;14.20;;
42092;SDS011;28974;50.316;18.960;2023-08-31T07:40:24;25.27;;;15.95;;
42092;SDS011;28974;50.316;18.960;2023-08-31T07:52:25;22.85;;;13.00;;
42092;SDS011;28974;50.316;18.960;2023-08-31T08:04:25;24.20;;;11.57;;
42092;SDS011;28974;50.316;18.960;2023-08-31T08:16:26;13.15;;;7.07;;
42092;SDS011;28974;50.316;18.960;2023-08-31T08:28:27;15.02;;;5.70;;
42092;SDS011;28974;50.316;18.960;2023-08-31T08:40:28;10.07;;;4.30;;
42092;SDS011;28974;50.316;18.960;2023-08-31T08:52:30;9.70;;;4.70;;
42092;SDS011;28974;50.316;18.960;2023-08-31T09:04:31;7.28;;;3.70;;
42092;SDS011;28974;50.316;18.960;2023-08-31T09:16:31;11.82;;;3.95;;
42092;SDS011;28974;50.316;18.960;2023-08-31T09:28:35;16.05;;;8.95;;
42092;SDS011;28974;50.316;18.960;2023-08-31T09:40:40;7.60;;;4.80;;
42092;SDS011;28974;50.316;18.960;2023-08-31T09:52:40;11.15;;;6.75;;
42092;SDS011;28974;50.316;18.960;2023-08-31T10:04:44;7.40;;;5.47;;
42092;SDS011;28974;50.316;18.960;2023-08-31T10:16:45;8.00;;;4.47;;
42092;SDS011;28974;50.316;18.960;2023-08-31T10:28:46;6.13;;;4.45;;
42092;SDS011;28974;50.316;18.960;2023-08-31T10:40:59;8.88;;;5.82;;
42092;SDS011;28974;50.316;18.960;2023-08-31T10:53:07;8.77;;;4.75;;
42092;SDS011;28974;50.316;18.960;2023-08-31T11:05:17;7.60;;;4.07;;
42092;SDS011;28974;50.316;18.960;2023-08-31T11:17:17;6.93;;;4.25;;
42092;SDS011;28974;50.316;18.960;2023-08-31T11:29:17;9.27;;;5.93;;
42092;SDS011;28974;50.316;18.960;2023-08-31T11:41:18;10.35;;;5.30;;
42092;SDS011;28974;50.316;18.960;2023-08-31T11:53:18;15.55;;;6.78;;
42092;SDS011;28974;50.316;18.960;2023-08-31T12:05:18;14.70;;;5.20;;
42092;SDS011;28974;50.316;18.960;2023-08-31T12:17:19;9.98;;;4.97;;
42092;SDS011;28974;50.316;18.960;2023-08-31T12:29:19;8.55;;;4.32;;
42092;SDS011;28974;50.316;18.960;2023-08-31T12:41:20;9.70;;;4.57;;
42092;SDS011;28974;50.316;18.960;2023-08-31T12:53:21;11.13;;;5.45;;
42092;SDS011;28974;50.316;18.960;2023-08-31T13:05:22;13.35;;;6.13;;
42092;SDS011;28974;50.316;18.960;2023-08-31T13:17:22;12.25;;;5.80;;
42092;SDS011;28974;50.316;18.960;2023-08-31T13:29:26;5.45;;;3.25;;
42092;SDS011;28974;50.316;18.960;2023-08-31T13:41:26;4.15;;;3.20;;
42092;SDS011;28974;50.316;18.960;2023-08-31T13:53:27;11.38;;;4.90;;
42092;SDS011;28974;50.316;18.960;2023-08-31T14:05:27;7.38;;;3.38;;
42092;SDS011;28974;50.316;18.960;2023-08-31T14:17:27;14.02;;;5.93;;
42092;SDS011;28974;50.316;18.960;2023-08-31T14:29:27;8.80;;;3.17;;
42092;SDS011;28974;50.316;18.960;2023-08-31T14:41:29;7.90;;;2.30;;
42092;SDS011;28974;50.316;18.960;2023-08-31T14:53:30;6.15;;;2.85;;
42092;SDS011;28974;50.316;18.960;2023-08-31T15:05:30;5.68;;;2.47;;
42092;SDS011;28974;50.316;18.960;2023-08-31T15:17:34;5.07;;;2.08;;
42092;SDS011;28974;50.316;18.960;2023-08-31T15:29:34;3.60;;;2.22;;
42092;SDS011;28974;50.316;18.960;2023-08-31T15:41:35;7.15;;;2.97;;
42092;SDS011;28974;50.316;18.960;2023-08-31T15:53:36;7.93;;;3.85;;
42092;SDS011;28974;50.316;18.960;2023-08-31T16:05:36;4.43;;;2.55;;
42092;SDS011;28974;50.316;18.960;2023-08-31T16:17:38;4.70;;;3.03;;
42092;SDS011;28974;50.316;18.960;2023-08-31T16:29:38;10.10;;;4.22;;
42092;SDS011;28974;50.316;18.960;2023-08-31T16:41:38;8.65;;;2.92;;
42092;SDS011;28974;50.316;18.960;2023-08-31T16:53:41;6.07;;;3.17;;
42092;SDS011;28974;50.316;18.960;2023-08-31T17:05:41;6.10;;;3.38;;
42092;SDS011;28974;50.316;18.960;2023-08-31T17:17:41;42.80;;;10.63;;
42092;SDS011;28974;50.316;18.960;2023-08-31T17:29:43;14.57;;;6.68;;
42092;SDS011;28974;50.316;18.960;2023-08-31T17:41:47;13.82;;;6.63;;
42092;SDS011;28974;50.316;18.960;2023-08-31T17:53:47;11.27;;;6.53;;
42092;SDS011;28974;50.316;18.960;2023-08-31T18:05:48;14.00;;;7.78;;
42092;SDS011;28974;50.316;18.960;2023-08-31T18:17:50;19.98;;;8.82;;
42092;SDS011;28974;50.316;18.960;2023-08-31T18:29:50;30.10;;;8.45;;
42092;SDS011;28974;50.316;18.960;2023-08-31T18:41:50;13.75;;;7.18;;
42092;SDS011;28974;50.316;18.960;2023-08-31T18:53:51;33.95;;;8.70;;
42092;SDS011;28974;50.316;18.960;2023-08-31T19:05:51;31.15;;;11.13;;
42092;SDS011;28974;50.316;18.960;2023-08-31T19:17:52;27.67;;;10.93;;
42092;SDS011;28974;50.316;18.960;2023-08-31T19:29:52;22.13;;;10.15;;
42092;SDS011;28974;50.316;18.960;2023-08-31T19:41:53;20.92;;;10.38;;
42092;SDS011;28974;50.316;18.960;2023-08-31T19:53:53;19.50;;;9.65;;
42092;SDS011;28974;50.316;18.960;2023-08-31T20:05:53;28.45;;;12.93;;
42092;SDS011;28974;50.316;18.960;2023-08-31T20:17:54;17.05;;;10.23;;
42092;SDS011;28974;50.316;18.960;2023-08-31T20:29:54;23.55;;;9.98;;
42092;SDS011;28974;50.316;18.960;2023-08-31T20:41:54;26.52;;;11.07;;
42092;SDS011;28974;50.316;18.960;2023-08-31T20:53:54;23.67;;;10.88;;
42092;SDS011;28974;50.316;18.960;2023-08-31T21:05:55;26.27;;;13.38;;
42092;SDS011;28974;50.316;18.960;2023-08-31T21:17:55;20.42;;;11.05;;
42092;SDS011;28974;50.316;18.960;2023-08-31T21:29:55;25.65;;;11.60;;
42092;SDS011;28974;50.316;18.960;2023-08-31T21:41:55;25.77;;;10.48;;
42092;SDS011;28974;50.316;18.960;2023-08-31T21:53:56;22.25;;;10.35;;
42092;SDS011;28974;50.316;18.960;2023-08-31T22:06:04;25.17;;;10.38;;
42092;SDS011;28974;50.316;18.960;2023-08-31T22:30:04;30.50;;;12.55;;
42092;SDS011;28974;50.316;18.960;2023-08-31T22:42:05;20.13;;;11.55;;
42092;SDS011;28974;50.316;18.960;2023-08-31T22:54:05;24.55;;;11.63;;
42092;SDS011;28974;50.316;18.960;2023-08-31T23:06:06;22.58;;;13.02;;
42092;SDS011;28974;50.316;18.960;2023-08-31T23:18:11;27.80;;;14.40;;
42092;SDS011;28974;50.316;18.960;2023-08-31T23:30:12;29.55;;;13.27;;
42092;SDS011;28974;50.316;18.960;2023-08-31T23:42:12;21.77;;;11.48;;
42092;SDS011;28974;50.316;18.960;2023-08-31T23:54:12;17.60;;;9.68;;
